»·PEaware :: OK-AS LKPR-UUDD

OK-AS :: LKPR-UUDD

FLIGHT INFORMATION

Flight Status: Arrived
Operator: Privately registered:
Czech Republic
More flights under this callsign
Pilot: Jan R. (5771)
Aircraft: BOMBARDIER BD-100 CHALLENGER 300
(CL30)
More flights by this aircraft type
Origin: LKPR Ruzyne
Czech Republic
Destination: UUDD Domodedovo
Russian Federation
More flights between these airports :: More routes between these airports
Route:
File this flight plan on PilotEdge
Remarks: Sample flight plan
Altitude:
(Current/Filed)
30,000ft
Speed:
(Current/Filed)
300kts
Departed: 20-Dec-14 07:25 AM
Arrived: 20-Dec-14 11:28 AM
Distance/Time
Traveled:
910nm/4:02
Distance/Time
To Go:
Arrived

Flight Plot

Page will automatically refresh every two minutes.


Map Options




Map Legend


Flown Route
Filed Route
Departure Airport
Arrival Airport
Navaid (VOR, NDB)
Fix

Horizontal Profiles

Position Reports

Time Latitude Longitude Heading Altitude Ground
Speed
20-Dec-14 07:12 50.106928 14.261061 48 1253ft 5kts
20-Dec-14 07:13 50.108435 14.262739 33 1253ft 12kts
20-Dec-14 07:14 50.110929 14.265326 37 1253ft 17kts
20-Dec-14 07:15 50.113305 14.270700 67 1253ft 21kts
20-Dec-14 07:16 50.115277 14.273167 305 1253ft 7kts
20-Dec-14 07:17 50.115634 14.272214 286 1253ft 2kts
20-Dec-14 07:18 50.115315 14.271146 241 1253ft 7kts
20-Dec-14 07:19 50.115100 14.270423 246 1253ft 0kts
20-Dec-14 07:20 50.115100 14.270423 246 1253ft 0kts
20-Dec-14 07:21 50.115077 14.270342 245 1253ft 4kts
20-Dec-14 07:22 50.109362 14.250996 246 1256ft 131kts
20-Dec-14 07:23 50.092871 14.200187 243 1829ft 205kts
20-Dec-14 07:24 50.075413 14.116639 265 3846ft 246kts
20-Dec-14 07:25 50.047232 14.047513 210 5958ft 248kts
20-Dec-14 07:26 49.990929 14.060361 142 5955ft 274kts
20-Dec-14 07:27 49.973985 14.147113 79 6399ft 268kts
20-Dec-14 07:28 50.016652 14.222788 10 7596ft 276kts
20-Dec-14 07:29 50.072277 14.204052 309 10196ft 244kts
20-Dec-14 07:30 50.129332 14.209088 55 12465ft 310kts
20-Dec-14 07:30 50.146148 14.292583 76 14054ft 320kts
20-Dec-14 07:31 50.166827 14.408878 68 16029ft 332kts
20-Dec-14 07:32 50.203369 14.525300 60 17133ft 373kts
20-Dec-14 07:34 50.257276 14.677146 59 18695ft 410kts
20-Dec-14 07:34 50.299950 14.796682 59 20180ft 423kts
20-Dec-14 07:35 50.348746 14.933957 59 21786ft 433kts
20-Dec-14 07:36 50.399195 15.076642 59 23324ft 442kts
20-Dec-14 07:37 50.448037 15.215557 59 24691ft 448kts
20-Dec-14 07:38 50.497607 15.357320 59 25944ft 454kts
20-Dec-14 07:39 50.543431 15.490018 60 26961ft 460kts
20-Dec-14 07:40 50.591459 15.629697 60 27893ft 465kts
20-Dec-14 07:41 50.637867 15.764628 60 28690ft 471kts
20-Dec-14 07:42 50.685068 15.902347 60 29398ft 475kts
20-Dec-14 07:43 50.736208 16.052656 60 29979ft 484kts
20-Dec-14 07:45 50.790230 16.212439 59 30089ft 503kts
20-Dec-14 07:46 50.847415 16.382601 58 30094ft 524kts
20-Dec-14 07:47 50.903890 16.553444 59 30084ft 539kts
20-Dec-14 07:48 50.961648 16.727988 59 30089ft 550kts
20-Dec-14 07:49 51.019750 16.904483 59 30116ft 552kts
20-Dec-14 07:50 51.077498 17.081155 60 30154ft 547kts
20-Dec-14 07:51 51.135096 17.258738 60 30194ft 537kts
20-Dec-14 07:52 51.189134 17.426481 61 29999ft 524kts
20-Dec-14 07:53 51.243290 17.597589 61 29965ft 518kts
20-Dec-14 07:54 51.296490 17.765094 61 29966ft 515kts
20-Dec-14 07:55 51.348154 17.928758 61 29968ft 512kts
20-Dec-14 07:56 51.398923 18.090661 61 29970ft 510kts
20-Dec-14 07:57 51.430532 18.192001 61 29971ft 510kts
20-Dec-14 07:58 51.464234 18.300518 61 29972ft 509kts
20-Dec-14 07:59 51.496078 18.403495 61 29973ft 509kts
20-Dec-14 08:00 51.525841 18.501448 63 29966ft 508kts
20-Dec-14 08:01 51.559675 18.612424 62 29967ft 507kts
20-Dec-14 08:02 51.589541 18.710310 62 29968ft 507kts
20-Dec-14 08:03 51.619155 18.807698 62 29969ft 506kts
20-Dec-14 08:04 51.647120 18.899982 62 29966ft 506kts
20-Dec-14 08:05 51.676143 18.996045 62 29966ft 506kts
20-Dec-14 08:06 51.704829 19.091449 62 29974ft 505kts
20-Dec-14 08:07 51.733384 19.186719 63 29984ft 505kts
20-Dec-14 08:08 51.755863 19.262075 64 29994ft 504kts
20-Dec-14 08:09 51.777912 19.336180 64 30003ft 503kts
20-Dec-14 08:10 51.804353 19.425518 65 30016ft 502kts
20-Dec-14 08:11 51.830900 19.517014 66 30009ft 502kts
20-Dec-14 08:12 51.860212 19.617184 66 30005ft 501kts
20-Dec-14 08:13 51.889448 19.717097 66 30004ft 500kts
20-Dec-14 08:14 51.917489 19.813270 66 30008ft 500kts
20-Dec-14 08:15 51.945737 19.910537 66 30014ft 499kts
20-Dec-14 08:16 51.973779 20.007491 66 30024ft 499kts
20-Dec-14 08:17 52.006030 20.119483 66 30040ft 498kts
20-Dec-14 08:18 52.049070 20.269775 66 30069ft 498kts
20-Dec-14 08:19 52.091987 20.420612 67 30104ft 498kts
20-Dec-14 08:20 52.132889 20.567210 67 30106ft 494kts
20-Dec-14 08:21 52.172352 20.707806 67 30113ft 489kts
20-Dec-14 08:22 52.212428 20.851281 67 30130ft 485kts
20-Dec-14 08:23 52.253885 21.000622 67 30156ft 482kts
20-Dec-14 08:24 52.294909 21.149407 67 30195ft 478kts
20-Dec-14 08:25 52.338103 21.307027 67 30237ft 474kts
20-Dec-14 08:26 52.378853 21.457593 68 30268ft 470kts
20-Dec-14 08:27 52.420333 21.612274 67 30283ft 466kts
20-Dec-14 08:28 52.461961 21.767334 67 30303ft 462kts
20-Dec-14 08:29 52.502169 21.918038 67 30328ft 459kts
20-Dec-14 08:30 52.541857 22.067769 67 30332ft 457kts
20-Dec-14 08:31 52.581942 22.220011 67 30275ft 457kts
20-Dec-14 08:32 52.622291 22.374288 67 30229ft 456kts
20-Dec-14 08:33 52.659782 22.520390 68 30163ft 456kts
20-Dec-14 08:34 52.698876 22.672264 68 30082ft 455kts
20-Dec-14 08:35 52.734551 22.811408 68 30016ft 455kts
20-Dec-14 08:36 52.769268 22.947630 68 29960ft 455kts
20-Dec-14 08:37 52.802737 23.079740 68 29914ft 454kts
20-Dec-14 08:38 52.836204 23.212635 68 29873ft 454kts
20-Dec-14 08:39 52.870599 23.350044 68 29837ft 454kts
20-Dec-14 08:40 52.902966 23.481660 69 29815ft 453kts
20-Dec-14 08:41 52.936123 23.616556 69 29815ft 451kts
20-Dec-14 08:42 52.969192 23.751167 69 29816ft 450kts
20-Dec-14 08:43 53.002248 23.886490 69 29817ft 449kts
20-Dec-14 08:44 53.034803 24.020579 69 29818ft 448kts
20-Dec-14 08:44 53.062097 24.133635 69 29819ft 448kts
20-Dec-14 08:46 53.099933 24.291338 69 29820ft 448kts
20-Dec-14 08:46 53.126358 24.402167 70 29820ft 447kts
20-Dec-14 08:48 53.163414 24.560845 70 29817ft 447kts
20-Dec-14 08:48 53.190039 24.674111 70 29817ft 446kts
20-Dec-14 08:49 53.222232 24.811654 70 29818ft 446kts
20-Dec-14 08:50 53.254567 24.950682 70 29819ft 445kts
20-Dec-14 08:51 53.286654 25.089537 70 29820ft 445kts
20-Dec-14 08:52 53.318735 25.229282 70 29821ft 445kts
20-Dec-14 08:53 53.349947 25.366135 70 29822ft 446kts
20-Dec-14 08:54 53.380109 25.501206 71 29818ft 446kts
20-Dec-14 08:55 53.407783 25.624653 71 29819ft 445kts
20-Dec-14 08:56 53.433374 25.738983 71 29820ft 445kts
20-Dec-14 08:58 53.461213 25.864015 71 29820ft 445kts
20-Dec-14 08:59 53.492283 26.004444 71 29821ft 446kts
20-Dec-14 09:00 53.523197 26.145093 71 29820ft 439kts
20-Dec-14 09:01 53.552857 26.280946 71 29820ft 427kts
20-Dec-14 09:02 53.581016 26.411062 72 29821ft 421kts
20-Dec-14 09:03 53.608933 26.542790 72 29822ft 431kts
20-Dec-14 09:04 53.638382 26.680623 71 29822ft 441kts
20-Dec-14 09:05 53.668151 26.820691 71 29817ft 450kts
20-Dec-14 09:06 53.698533 26.964579 71 29818ft 458kts
20-Dec-14 09:07 53.728907 27.109496 71 29647ft 468kts
20-Dec-14 09:08 53.759317 27.255589 71 29642ft 473kts
20-Dec-14 09:09 53.788625 27.397426 72 29641ft 478kts
20-Dec-14 09:10 53.816307 27.534794 72 29638ft 480kts
20-Dec-14 09:11 53.843740 27.669728 72 29637ft 477kts
20-Dec-14 09:12 53.871452 27.806665 72 29639ft 474kts
20-Dec-14 09:13 53.900032 27.948859 72 29638ft 465kts
20-Dec-14 09:14 53.928487 28.091284 72 29641ft 455kts
20-Dec-14 09:15 53.956878 28.234646 73 29639ft 442kts
20-Dec-14 09:16 53.983038 28.367744 73 29639ft 429kts
20-Dec-14 09:17 54.006852 28.491923 74 29636ft 416kts
20-Dec-14 09:18 54.031230 28.618196 74 29636ft 403kts
20-Dec-14 09:19 54.054656 28.739757 74 29636ft 389kts
20-Dec-14 09:20 54.075130 28.846571 74 29636ft 378kts
20-Dec-14 09:21 54.092428 28.937279 74 29636ft 368kts
20-Dec-14 09:22 54.108759 29.023313 74 29636ft 359kts
20-Dec-14 09:23 54.125557 29.112212 74 29636ft 349kts
20-Dec-14 09:24 54.143131 29.205714 74 29640ft 345kts
20-Dec-14 09:25 54.161957 29.306403 74 29641ft 347kts
20-Dec-14 09:26 54.180320 29.405614 76 29641ft 350kts
20-Dec-14 09:27 54.199728 29.512631 75 29570ft 355kts
20-Dec-14 09:28 54.215359 29.597931 75 29477ft 360kts
20-Dec-14 09:29 54.233486 29.697005 75 29371ft 365kts
20-Dec-14 09:30 54.252992 29.804116 75 29259ft 371kts
20-Dec-14 09:31 54.270595 29.901298 75 29159ft 376kts
20-Dec-14 09:32 54.287564 29.995467 75 29064ft 381kts
20-Dec-14 09:33 54.304820 30.091657 75 28964ft 386kts
20-Dec-14 09:34 54.323365 30.195684 75 28862ft 391kts
20-Dec-14 09:35 54.341111 30.295817 75 28770ft 396kts
20-Dec-14 09:36 54.361243 30.410786 77 28665ft 401kts
20-Dec-14 09:37 54.381559 30.528991 76 28554ft 407kts
20-Dec-14 09:38 54.401442 30.643652 76 28450ft 412kts
20-Dec-14 09:39 54.422168 30.763636 76 28345ft 417kts
20-Dec-14 09:40 54.443142 30.885841 76 28243ft 422kts
20-Dec-14 09:41 54.464083 31.008693 76 28144ft 426kts
20-Dec-14 09:42 54.480857 31.107721 76 28066ft 430kts
20-Dec-14 09:43 54.504032 31.245450 76 28034ft 432kts
20-Dec-14 09:44 54.525863 31.376188 77 28066ft 433kts
20-Dec-14 09:45 54.547277 31.508282 77 28084ft 433kts
20-Dec-14 09:46 54.568895 31.640334 77 27963ft 434kts
20-Dec-14 09:47 54.588160 31.758099 77 27542ft 394kts
20-Dec-14 09:48 54.606635 31.872010 77 27141ft 365kts
20-Dec-14 09:49 54.622194 31.968588 78 26788ft 346kts
20-Dec-14 09:50 54.637439 32.063756 78 26431ft 332kts
20-Dec-14 09:51 54.650759 32.147650 78 26082ft 322kts
20-Dec-14 09:52 54.664182 32.232467 78 25724ft 313kts
20-Dec-14 09:52 54.675903 32.306796 78 25407ft 308kts
20-Dec-14 09:54 54.692793 32.415710 80 24931ft 301kts
20-Dec-14 09:55 54.707055 32.509011 79 24512ft 297kts
20-Dec-14 09:55 54.718699 32.584456 79 24173ft 295kts
20-Dec-14 09:57 54.734846 32.689224 79 23703ft 292kts
20-Dec-14 09:57 54.746201 32.763222 79 23372ft 291kts
20-Dec-14 09:58 54.760292 32.855503 79 22961ft 290kts
20-Dec-14 09:59 54.774379 32.948260 79 22550ft 290kts
20-Dec-14 10:00 54.788638 33.042692 79 22135ft 290kts
20-Dec-14 10:01 54.802867 33.137489 79 21721ft 290kts
20-Dec-14 10:02 54.817044 33.232480 79 21309ft 291kts
20-Dec-14 10:03 54.830360 33.322232 79 20923ft 291kts
20-Dec-14 10:04 54.843095 33.409748 80 20543ft 292kts
20-Dec-14 10:05 54.855648 33.497266 80 20158ft 292kts
20-Dec-14 10:06 54.868885 33.588534 79 19758ft 293kts
20-Dec-14 10:07 54.882152 33.680124 79 19360ft 293kts
20-Dec-14 10:09 54.895447 33.772328 79 18962ft 294kts
20-Dec-14 10:10 54.908764 33.865254 79 18563ft 295kts
20-Dec-14 10:11 54.921719 33.956137 79 18175ft 295kts
20-Dec-14 10:12 54.934641 34.047388 79 17789ft 296kts
20-Dec-14 10:13 54.947761 34.140528 79 17396ft 296kts
20-Dec-14 10:14 54.960842 34.233957 79 17005ft 296kts
20-Dec-14 10:15 54.973882 34.327777 79 16614ft 296kts
20-Dec-14 10:16 54.986601 34.421518 80 16216ft 297kts
20-Dec-14 10:17 55.000065 34.521413 80 15797ft 299kts
20-Dec-14 10:18 55.012686 34.614194 79 15407ft 301kts
20-Dec-14 10:19 55.026023 34.712742 79 15004ft 305kts
20-Dec-14 10:20 55.039692 34.814239 79 14603ft 314kts
20-Dec-14 10:21 55.053974 34.921041 79 14189ft 319kts
20-Dec-14 10:22 55.067501 35.022785 79 13796ft 321kts
20-Dec-14 10:23 55.081296 35.127479 79 13395ft 322kts
20-Dec-14 10:24 55.095540 35.236242 78 12981ft 323kts
20-Dec-14 10:25 55.109538 35.343958 78 12572ft 323kts
20-Dec-14 10:26 55.122233 35.445055 80 12181ft 322kts
20-Dec-14 10:27 55.135985 35.553785 79 11757ft 322kts
20-Dec-14 10:28 55.150126 35.665366 80 11325ft 322kts
20-Dec-14 10:29 55.163992 35.775485 80 10898ft 321kts
20-Dec-14 10:30 55.177425 35.882929 80 10475ft 312kts
20-Dec-14 10:31 55.190209 35.985659 79 10052ft 303kts
20-Dec-14 10:32 55.202130 36.082480 79 9650ft 298kts
20-Dec-14 10:33 55.214034 36.179679 80 9548ft 284kts
20-Dec-14 10:34 55.225172 36.271254 79 9366ft 266kts
20-Dec-14 10:35 55.235391 36.355844 79 9078ft 249kts
20-Dec-14 10:36 55.243372 36.425507 81 8843ft 245kts
20-Dec-14 10:37 55.250738 36.491073 82 8622ft 244kts
20-Dec-14 10:38 55.258340 36.559104 81 8393ft 244kts
20-Dec-14 10:39 55.266852 36.635846 81 8074ft 246kts
20-Dec-14 10:40 55.275702 36.716328 82 7741ft 247kts
20-Dec-14 10:41 55.284636 36.798254 81 7404ft 247kts
20-Dec-14 10:42 55.293479 36.880031 82 7075ft 247kts
20-Dec-14 10:43 55.302390 36.963078 80 6732ft 247kts
20-Dec-14 10:44 55.309401 37.028777 80 6455ft 247kts
20-Dec-14 10:45 55.316664 37.097472 81 6172ft 248kts
20-Dec-14 10:46 55.324982 37.176756 81 5852ft 247kts
20-Dec-14 10:47 55.333512 37.258694 80 5506ft 244kts
20-Dec-14 10:48 55.341497 37.335834 80 5171ft 235kts
20-Dec-14 10:49 55.348763 37.406343 81 4833ft 229kts
20-Dec-14 10:50 55.356121 37.478433 79 4613ft 216kts
20-Dec-14 10:51 55.363183 37.548133 81 4306ft 219kts
20-Dec-14 10:52 55.370339 37.619949 81 3871ft 231kts
20-Dec-14 10:53 55.377923 37.697434 81 3561ft 245kts
20-Dec-14 10:54 55.385751 37.778695 80 3218ft 255kts
20-Dec-14 10:55 55.391487 37.838662 81 2981ft 257kts
20-Dec-14 10:56 55.397827 37.905361 81 2715ft 260kts
20-Dec-14 10:57 55.405684 37.988560 82 2521ft 256kts
20-Dec-14 10:58 55.413227 38.069269 80 2550ft 241kts
20-Dec-14 10:59 55.418796 38.128903 79 2544ft 227kts
20-Dec-14 11:00 55.425151 38.201636 93 2578ft 200kts
20-Dec-14 11:01 55.410015 38.250548 159 2488ft 143kts
20-Dec-14 11:02 55.388019 38.267076 162 2646ft 141kts
20-Dec-14 11:03 55.353197 38.274374 188 2571ft 207kts
20-Dec-14 11:04 55.316909 38.260365 222 2516ft 199kts
20-Dec-14 11:05 55.296047 38.223281 225 2548ft 190kts
20-Dec-14 11:05 55.276163 38.186956 226 2546ft 183kts
20-Dec-14 11:06 55.258201 38.143951 272 2506ft 145kts
20-Dec-14 11:07 55.269076 38.108026 297 2582ft 133kts
20-Dec-14 11:08 55.289053 38.068391 325 2611ft 169kts
20-Dec-14 11:09 55.309787 38.073717 69 2280ft 122kts
20-Dec-14 11:10 55.298612 38.102592 162 1913ft 117kts
20-Dec-14 11:11 55.278161 38.115761 163 1765ft 110kts
20-Dec-14 11:12 55.249810 38.133575 159 1885ft 181kts
20-Dec-14 11:13 55.230078 38.162131 94 1786ft 116kts
20-Dec-14 11:14 55.247966 38.185911 343 1908ft 170kts
20-Dec-14 11:15 55.275456 38.155416 327 1842ft 133kts
20-Dec-14 11:16 55.291730 38.122502 278 1849ft 113kts
20-Dec-14 11:18 55.292772 38.079857 311 1866ft 130kts
20-Dec-14 11:19 55.317353 38.072483 329 1944ft 139kts
20-Dec-14 11:20 55.339717 38.040310 318 2175ft 137kts
20-Dec-14 11:21 55.360177 38.009359 317 2206ft 119kts
20-Dec-14 11:22 55.377644 37.983190 313 1764ft 111kts
20-Dec-14 11:23 55.389752 37.950467 299 1192ft 106kts
20-Dec-14 11:24 55.403465 37.931783 323 594ft 82kts
20-Dec-14 11:25 55.409109 37.922896 287 594ft 17kts
20-Dec-14 11:26 55.410417 37.917743 317 593ft 19kts
20-Dec-14 11:27 55.412120 37.914811 317 593ft 10kts
20-Dec-14 11:28 55.413090 37.912939 266 594ft 7kts
20-Dec-14 11:29 55.413364 37.911245 324 593ft 5kts
20-Dec-14 11:30 55.413548 37.910079 236 594ft 4kts
20-Dec-14 11:31 55.413257 37.909308 235 593ft 2kts
20-Dec-14 11:32 55.412991 37.908602 236 593ft 3kts
20-Dec-14 11:33 55.412895 37.907554 319 593ft 4kts
20-Dec-14 11:34 55.412941 37.906184 242 593ft 6kts
20-Dec-14 11:35 55.412400 37.904599 218 593ft 6kts
20-Dec-14 11:36 55.411574 37.902715 235 593ft 7kts
20-Dec-14 11:37 55.410677 37.900538 232 593ft 8kts
20-Dec-14 11:38 55.410246 37.898388 329 593ft 5kts
20-Dec-14 11:39 55.410525 37.898327 16 593ft 2kts

Navigation Log

Ident Type
Flight plan parsing failed, navigation log unavailable